createdAt,value
2022-08-17T00:09:57.634Z,99589.00
2022-08-17T00:20:00.420Z,99597.88
2022-08-17T00:30:02.083Z,99600.44
2022-08-17T00:40:04.758Z,99593.03
2022-08-17T00:50:14.894Z,99592.94
2022-08-17T01:00:26.888Z,99607.38
2022-08-17T01:10:59.457Z,99607.69
2022-08-17T01:21:14.926Z,99612.97
2022-08-17T01:31:17.599Z,99610.19
2022-08-17T01:41:22.002Z,99614.63
2022-08-17T01:51:32.716Z,99617.63
2022-08-17T02:01:35.406Z,99610.06
2022-08-17T02:11:39.547Z,99611.00
2022-08-17T02:21:47.426Z,99613.72
2022-08-17T02:31:49.359Z,99600.00
2022-08-17T02:42:01.094Z,99605.75
2022-08-17T02:52:04.229Z,99606.66
2022-08-17T03:02:11.723Z,99599.81
2022-08-17T03:12:15.078Z,99594.75
2022-08-17T03:22:36.749Z,99606.03
2022-08-17T03:32:47.706Z,99617.69
2022-08-17T03:42:52.658Z,99627.53
2022-08-17T03:53:21.834Z,99647.72
2022-08-17T04:03:23.515Z,99649.53
2022-08-17T04:13:25.705Z,99650.81
2022-08-17T04:23:33.782Z,99647.41
2022-08-17T04:33:37.810Z,99655.72
2022-08-17T04:43:41.394Z,99657.38
2022-08-17T04:53:51.077Z,99671.00
2022-08-17T05:04:02.414Z,99671.38
2022-08-17T05:14:32.451Z,99694.22
2022-08-17T05:24:40.722Z,99694.66
2022-08-17T05:34:47.510Z,99677.47
2022-08-17T05:44:49.233Z,99678.66
2022-08-17T05:55:27.476Z,99693.50
2022-08-17T06:05:48.329Z,99695.81
2022-08-17T06:16:31.065Z,99706.94
2022-08-17T06:26:43.173Z,99698.69
2022-08-17T06:37:10.457Z,99717.41
2022-08-17T06:47:41.589Z,99691.75
2022-08-17T06:57:52.611Z,99709.53
2022-08-17T07:08:14.801Z,99710.69
2022-08-17T07:18:16.477Z,99709.34
2022-08-17T07:28:26.324Z,99714.94
2022-08-17T07:38:31.673Z,99703.16
2022-08-17T07:48:41.817Z,99716.44
2022-08-17T07:58:43.493Z,99710.16
2022-08-17T08:08:53.021Z,99720.97
2022-08-17T08:18:58.590Z,99719.81
2022-08-17T08:29:39.742Z,99714.41
2022-08-17T08:40:11.522Z,99714.69
2022-08-17T08:50:30.227Z,99706.22
2022-08-17T09:00:48.214Z,99698.78
2022-08-17T09:11:05.216Z,99696.97
2022-08-17T09:21:47.934Z,99711.00
2022-08-17T09:32:01.940Z,99701.28
2022-08-17T09:42:16.013Z,99705.41
2022-08-17T09:52:19.975Z,99682.94
2022-08-17T10:02:40.834Z,99688.13
2022-08-17T10:12:53.120Z,99684.63
2022-08-17T10:23:24.831Z,99687.28
2022-08-17T10:33:40.546Z,99673.47
2022-08-17T10:44:36.558Z,99680.84
2022-08-17T10:54:39.086Z,99675.41
2022-08-17T11:05:00.379Z,99684.63
2022-08-17T11:15:36.260Z,99661.63
2022-08-17T11:25:52.638Z,99667.84
2022-08-17T11:36:19.795Z,99661.53
2022-08-17T11:47:08.454Z,99651.91
2022-08-17T11:57:47.301Z,99650.38
2022-08-17T12:08:10.843Z,99646.91
2022-08-17T12:18:45.584Z,99644.13
2022-08-17T12:28:50.397Z,99621.91
2022-08-17T12:39:13.668Z,99633.16
2022-08-17T12:49:16.606Z,99629.78
2022-08-17T12:59:30.406Z,99616.78
2022-08-17T13:09:40.118Z,99613.69
2022-08-17T13:19:49.681Z,99620.69
2022-08-17T13:29:59.636Z,99607.50
2022-08-17T13:40:13.366Z,99607.44
2022-08-17T13:50:21.806Z,99596.53
2022-08-17T14:00:31.770Z,99606.78
2022-08-17T14:10:36.851Z,99591.66
2022-08-17T14:20:39.965Z,99601.63
2022-08-17T14:30:47.643Z,99592.03
2022-08-17T14:40:49.592Z,99591.78
2022-08-17T14:50:52.477Z,99604.13
2022-08-17T15:01:01.734Z,99594.06
2022-08-17T15:11:04.591Z,99596.63
2022-08-17T15:21:16.117Z,99590.13
2022-08-17T15:31:20.193Z,99594.31
2022-08-17T15:41:37.790Z,99573.72
2022-08-17T16:24:37.376Z,99570.06
2022-08-17T16:34:41.781Z,99573.28
2022-08-17T16:44:44.533Z,99566.06
2022-08-17T16:54:48.459Z,99576.00
2022-08-17T17:05:27.081Z,99584.75
2022-08-17T17:15:39.560Z,99584.97
2022-08-17T17:25:55.570Z,99593.06
2022-08-17T17:36:07.145Z,99600.38
2022-08-17T17:46:26.485Z,99605.38
2022-08-17T17:56:46.711Z,99612.19
2022-08-17T18:07:10.149Z,99614.25
2022-08-17T18:17:14.557Z,99618.03
2022-08-17T18:27:24.361Z,99623.66
2022-08-17T18:37:35.216Z,99649.94
2022-08-17T18:47:53.061Z,99659.22
2022-08-17T18:58:15.549Z,99654.31
2022-08-17T19:08:28.754Z,99659.72
2022-08-17T19:18:36.472Z,99663.09
2022-08-17T19:29:00.131Z,99677.19
2022-08-17T19:39:11.637Z,99680.59
2022-08-17T19:49:32.872Z,99674.88
2022-08-17T20:00:01.133Z,99662.75
2022-08-17T20:10:08.205Z,99673.16
2022-08-17T20:20:20.079Z,99671.16
2022-08-17T20:30:42.824Z,99666.97
2022-08-17T20:40:58.032Z,99667.44
2022-08-17T20:51:28.931Z,99650.97
2022-08-17T21:01:42.079Z,99651.88
2022-08-17T21:12:03.733Z,99661.19
2022-08-17T21:22:16.702Z,99661.44
2022-08-17T21:32:29.060Z,99679.25
2022-08-17T21:42:34.518Z,99670.72
2022-08-17T21:52:40.582Z,99683.56
2022-08-17T22:02:44.609Z,99676.41
2022-08-17T22:13:04.593Z,99697.44
2022-08-17T22:23:31.333Z,99708.59
2022-08-17T22:33:33.496Z,99719.50
2022-08-17T22:43:38.987Z,99757.19
2022-08-17T22:54:17.832Z,99758.50
2022-08-17T23:04:40.318Z,99753.38
2022-08-17T23:14:45.559Z,99766.78
2022-08-17T23:24:50.505Z,99775.25
2022-08-17T23:35:01.262Z,99763.00
2022-08-17T23:45:03.859Z,99759.19
2022-08-17T23:55:06.194Z,99762.72
